Time;durP1;ratioP1;P1;durP2;ratioP2;P2;SDS_P1;SDS_P2;PMS_P1;PMS_P2;Temp;Humidity;BMP_temperature;BMP_pressure;BME280_temperature;BME280_humidity;BME280_pressure;Samples;Min_cycle;Max_cycle;Signal;HPM_P1;HPM_P2
2023/12/11 00:00:40;;;;;;;156.43;89.25;;;1.90;99.90;;;;;;5010379;28;20465;-79
2023/12/11 00:03:08;;;;;;;147.57;88.03;;;1.90;99.90;;;;;;5011206;28;20658;-75
2023/12/11 00:05:38;;;;;;;150.13;87.45;;;1.90;99.90;;;;;;5016407;28;20042;-74
2023/12/11 00:08:09;;;;;;;163.88;91.97;;;1.80;99.90;;;;;;5032244;28;20072;-75
2023/12/11 00:10:36;;;;;;;178.23;91.78;;;1.90;99.90;;;;;;5016404;28;20110;-78
2023/12/11 00:13:04;;;;;;;171.95;92.35;;;1.90;99.90;;;;;;5013473;28;20485;-74
2023/12/11 00:15:31;;;;;;;161.50;88.30;;;1.90;99.90;;;;;;4996377;28;20042;-76
2023/12/11 00:17:59;;;;;;;170.65;89.85;;;1.80;99.90;;;;;;5011294;28;20556;-77
2023/12/11 00:20:27;;;;;;;171.40;91.70;;;1.80;99.90;;;;;;5011531;28;20504;-78
2023/12/11 00:22:54;;;;;;;161.77;87.15;;;1.80;99.90;;;;;;5012982;28;20497;-79
2023/12/11 00:25:23;;;;;;;164.13;93.25;;;1.90;99.90;;;;;;4996768;28;20096;-78
2023/12/11 00:27:52;;;;;;;174.75;92.63;;;1.80;99.90;;;;;;4997938;28;20042;-78
2023/12/11 00:30:19;;;;;;;154.05;85.85;;;1.80;99.90;;;;;;5014034;28;20034;-75
2023/12/11 00:32:47;;;;;;;189.02;97.25;;;1.90;99.90;;;;;;5015445;28;20125;-80
2023/12/11 00:35:15;;;;;;;191.93;97.50;;;1.90;99.90;;;;;;5014813;28;20042;-78
2023/12/11 00:37:43;;;;;;;172.25;93.45;;;2.00;99.90;;;;;;5016080;28;20084;-78
2023/12/11 00:40:11;;;;;;;164.90;84.95;;;1.80;99.90;;;;;;4997963;28;20066;-77
2023/12/11 00:42:40;;;;;;;169.70;89.97;;;1.80;99.90;;;;;;4997931;28;20101;-76
2023/12/11 00:45:09;;;;;;;147.50;81.93;;;1.80;99.90;;;;;;5007429;28;20039;-77
2023/12/11 00:47:36;;;;;;;155.75;84.90;;;1.80;99.90;;;;;;5007919;28;20057;-77
2023/12/11 00:50:04;;;;;;;159.82;83.97;;;1.80;99.90;;;;;;5009707;28;20058;-78
2023/12/11 00:52:32;;;;;;;171.13;91.72;;;1.80;99.90;;;;;;5011170;28;20429;-77
2023/12/11 00:55:00;;;;;;;172.57;93.00;;;1.80;99.90;;;;;;4993957;28;20057;-77
2023/12/11 00:57:30;;;;;;;176.80;94.18;;;1.80;99.90;;;;;;4993922;28;20402;-78
2023/12/11 00:59:59;;;;;;;173.43;93.47;;;1.80;99.90;;;;;;5012363;28;20046;-77
2023/12/11 01:02:26;;;;;;;227.50;102.82;;;1.70;99.90;;;;;;5013176;28;20269;-77
2023/12/11 01:04:54;;;;;;;193.38;96.93;;;1.80;99.90;;;;;;4986030;28;20077;-74
2023/12/11 01:07:22;;;;;;;188.65;98.50;;;1.70;99.90;;;;;;5030324;28;20041;-76
2023/12/11 01:09:52;;;;;;;202.32;95.85;;;1.80;99.90;;;;;;5015745;28;20057;-72
2023/12/11 01:12:19;;;;;;;135.38;73.68;;;1.80;99.90;;;;;;5026283;28;20042;-76
2023/12/11 01:14:47;;;;;;;157.30;76.53;;;1.80;99.90;;;;;;5010185;28;20046;-78
2023/12/11 01:17:17;;;;;;;179.95;74.57;;;1.80;99.90;;;;;;5011445;28;20058;-77
2023/12/11 01:19:45;;;;;;;136.98;68.00;;;1.80;99.90;;;;;;5011129;28;20045;-79
2023/12/11 01:22:12;;;;;;;158.23;73.10;;;1.70;99.90;;;;;;5012334;28;20042;-73
2023/12/11 01:24:40;;;;;;;205.85;81.35;;;1.70;99.90;;;;;;4995343;28;20096;-75
2023/12/11 01:27:08;;;;;;;145.60;73.20;;;1.70;99.90;;;;;;4996429;28;20045;-76
2023/12/11 01:29:36;;;;;;;192.32;82.40;;;1.70;99.90;;;;;;4995496;28;20578;-77
2023/12/11 01:32:04;;;;;;;215.43;82.15;;;1.70;99.90;;;;;;5010258;28;20193;-77
2023/12/11 01:34:33;;;;;;;155.88;73.40;;;1.60;99.90;;;;;;5009512;28;20045;-75
2023/12/11 01:37:01;;;;;;;149.10;73.05;;;1.40;99.90;;;;;;5011966;28;20425;-77
2023/12/11 01:39:29;;;;;;;135.40;70.40;;;1.50;99.90;;;;;;4994931;28;20724;-74
2023/12/11 01:41:56;;;;;;;141.77;72.72;;;1.50;99.90;;;;;;5012780;28;20041;-77
2023/12/11 01:44:26;;;;;;;159.35;74.22;;;1.50;99.90;;;;;;4993474;28;20080;-77
2023/12/11 01:46:54;;;;;;;133.65;68.93;;;1.60;99.90;;;;;;5010462;28;20038;-78
2023/12/11 01:49:23;;;;;;;175.57;74.05;;;1.60;99.90;;;;;;5010725;28;20086;-78
2023/12/11 01:51:53;;;;;;;162.68;75.38;;;1.60;99.90;;;;;;4993066;28;20046;-76
2023/12/11 01:54:21;;;;;;;151.88;74.10;;;1.60;99.90;;;;;;4992759;28;20050;-76
2023/12/11 01:56:49;;;;;;;159.35;77.38;;;1.60;99.90;;;;;;5010519;28;20560;-75
2023/12/11 01:59:17;;;;;;;155.95;78.22;;;1.50;99.90;;;;;;5009477;28;20077;-73
2023/12/11 02:01:45;;;;;;;236.63;96.32;;;1.50;99.90;;;;;;5009835;28;20050;-74
2023/12/11 02:04:16;;;;;;;160.90;79.00;;;1.40;99.90;;;;;;5034519;28;20068;-76
2023/12/11 02:06:43;;;;;;;134.27;67.03;;;1.20;99.90;;;;;;5007206;28;20054;-79
2023/12/11 02:09:15;;;;;;;129.85;71.03;;;1.00;99.90;;;;;;5020520;28;20046;-77
2023/12/11 02:11:44;;;;;;;142.98;68.47;;;1.00;99.90;;;;;;4996487;28;20056;-78
2023/12/11 02:14:11;;;;;;;119.50;61.45;;;1.00;99.90;;;;;;5013793;28;20044;-79
2023/12/11 02:16:39;;;;;;;127.00;68.07;;;1.10;99.90;;;;;;5007311;28;20045;-76
2023/12/11 02:19:08;;;;;;;117.43;62.83;;;1.10;99.90;;;;;;4992339;28;20055;-79
2023/12/11 02:21:36;;;;;;;96.10;52.22;;;1.10;99.90;;;;;;5008483;28;20042;-79
2023/12/11 02:24:09;;;;;;;114.43;57.20;;;1.10;99.90;;;;;;4992254;28;20050;-78
2023/12/11 02:26:38;;;;;;;100.88;57.55;;;1.10;99.90;;;;;;5008360;28;20215;-78
2023/12/11 02:29:06;;;;;;;122.63;63.88;;;1.10;99.90;;;;;;4981634;28;20186;-77
2023/12/11 02:31:34;;;;;;;104.28;60.75;;;1.10;99.90;;;;;;4992453;28;20417;-77
2023/12/11 02:34:01;;;;;;;110.35;59.45;;;1.10;99.90;;;;;;4991806;28;20445;-78
2023/12/11 02:36:29;;;;;;;153.27;81.85;;;1.10;99.90;;;;;;5007898;28;20111;-75
2023/12/11 02:38:57;;;;;;;130.32;69.70;;;1.10;99.90;;;;;;4992811;28;20374;-78
2023/12/11 02:41:25;;;;;;;125.93;68.60;;;1.10;99.90;;;;;;5008835;28;20512;-78
2023/12/11 02:43:54;;;;;;;118.22;65.05;;;1.10;99.90;;;;;;5009334;28;20371;-79
2023/12/11 02:46:22;;;;;;;127.95;68.72;;;1.20;99.90;;;;;;5007560;28;20124;-78
2023/12/11 02:48:50;;;;;;;116.20;67.45;;;1.10;99.90;;;;;;5007016;28;20038;-79
2023/12/11 02:51:17;;;;;;;144.15;79.30;;;1.10;99.90;;;;;;5009452;28;20112;-78
2023/12/11 02:53:45;;;;;;;123.63;71.47;;;1.10;99.90;;;;;;4991158;28;20150;-75
2023/12/11 02:56:13;;;;;;;118.75;68.43;;;1.00;99.90;;;;;;4992096;28;20133;-78
2023/12/11 02:58:43;;;;;;;116.63;67.93;;;1.00;99.90;;;;;;4991516;28;20100;-77
2023/12/11 03:01:12;;;;;;;115.13;66.45;;;1.00;99.90;;;;;;5007497;28;20045;-77
2023/12/11 03:03:39;;;;;;;113.38;68.55;;;1.00;99.90;;;;;;4988998;28;20053;-77
2023/12/11 03:06:08;;;;;;;107.43;61.40;;;1.00;99.90;;;;;;4991812;28;20119;-78
2023/12/11 03:08:38;;;;;;;92.07;50.80;;;0.90;99.90;;;;;;4992064;28;20069;-78
2023/12/11 03:11:05;;;;;;;91.10;50.60;;;0.90;99.90;;;;;;5008990;28;20117;-78
2023/12/11 03:13:33;;;;;;;93.22;51.60;;;0.90;99.90;;;;;;4991599;28;20041;-76
2023/12/11 03:16:01;;;;;;;86.45;50.00;;;0.90;99.90;;;;;;4991862;28;20042;-76
2023/12/11 03:18:30;;;;;;;101.47;53.53;;;0.80;99.90;;;;;;5010153;28;20045;-77
2023/12/11 03:20:57;;;;;;;84.22;48.80;;;0.80;99.90;;;;;;5007803;28;20069;-77
2023/12/11 03:23:26;;;;;;;89.30;52.05;;;0.80;99.90;;;;;;4991536;28;20041;-76
2023/12/11 03:25:53;;;;;;;104.13;61.25;;;0.80;99.90;;;;;;5008497;28;20477;-74
2023/12/11 03:28:21;;;;;;;106.20;65.13;;;0.80;99.90;;;;;;4991866;28;20046;-77
2023/12/11 03:30:49;;;;;;;113.70;69.65;;;0.90;99.90;;;;;;5020224;28;20041;-77
2023/12/11 03:33:16;;;;;;;152.02;80.47;;;0.90;99.90;;;;;;5032139;28;20034;-78
2023/12/11 03:36:10;;;;;;;133.90;74.68;;;1.00;99.90;;;;;;5023182;28;20597;-75
2023/12/11 03:38:38;;;;;;;112.35;66.13;;;0.80;99.90;;;;;;4994167;28;20049;-76
2023/12/11 03:41:06;;;;;;;108.85;61.75;;;0.70;99.90;;;;;;5012672;28;20045;-77
2023/12/11 03:43:33;;;;;;;135.38;84.20;;;0.70;99.90;;;;;;5014701;28;20046;-75
2023/12/11 03:46:03;;;;;;;97.47;56.70;;;0.80;99.90;;;;;;5014829;28;20510;-76
2023/12/11 03:48:30;;;;;;;103.20;59.83;;;0.80;99.90;;;;;;5011990;28;20560;-77
2023/12/11 03:50:58;;;;;;;97.88;54.95;;;0.80;99.90;;;;;;5011861;28;20972;-77
2023/12/11 03:53:29;;;;;;;86.78;50.80;;;0.70;99.90;;;;;;5012517;28;20490;-78
2023/12/11 03:55:56;;;;;;;92.78;53.47;;;0.70;99.90;;;;;;5012212;28;20038;-78
2023/12/11 03:58:24;;;;;;;108.00;61.78;;;0.70;99.90;;;;;;4994222;28;20050;-77
2023/12/11 04:00:51;;;;;;;109.53;66.35;;;0.80;99.90;;;;;;5017124;28;20049;-81
2023/12/11 04:03:19;;;;;;;114.70;67.55;;;0.80;99.90;;;;;;5015896;28;20058;-73
2023/12/11 04:05:48;;;;;;;107.10;65.10;;;0.80;99.90;;;;;;4999075;28;20042;-77
2023/12/11 04:08:15;;;;;;;107.45;66.18;;;0.90;99.90;;;;;;5012420;28;20041;-76
2023/12/11 04:10:44;;;;;;;95.20;54.67;;;0.80;99.90;;;;;;4993488;28;20066;-76
2023/12/11 04:13:12;;;;;;;77.97;46.20;;;0.80;99.90;;;;;;5010429;28;20493;-78
2023/12/11 04:15:40;;;;;;;102.03;57.63;;;0.80;99.90;;;;;;4995724;28;20054;-75
2023/12/11 04:18:08;;;;;;;121.57;75.63;;;0.70;99.90;;;;;;4994664;28;20414;-78
2023/12/11 04:20:35;;;;;;;133.15;84.00;;;0.70;99.90;;;;;;5011246;28;20100;-78
2023/12/11 04:23:03;;;;;;;131.35;82.70;;;0.70;99.90;;;;;;5011657;28;20038;-78
2023/12/11 04:25:30;;;;;;;125.35;77.10;;;0.70;99.90;;;;;;4986009;28;20050;-80
2023/12/11 04:28:00;;;;;;;127.85;74.03;;;0.60;99.90;;;;;;5011506;28;20066;-79
2023/12/11 04:30:27;;;;;;;121.15;70.20;;;0.60;99.90;;;;;;5012910;28;20117;-79
2023/12/11 04:32:55;;;;;;;112.55;68.45;;;0.50;99.90;;;;;;5011529;28;20548;-78
2023/12/11 04:35:23;;;;;;;123.00;66.82;;;0.30;99.90;;;;;;4994408;28;20133;-79
2023/12/11 04:37:50;;;;;;;106.95;63.58;;;0.20;99.90;;;;;;5009967;28;20045;-77
2023/12/11 04:40:18;;;;;;;96.60;56.40;;;0.20;99.90;;;;;;5011525;28;20042;-79
2023/12/11 04:42:45;;;;;;;95.65;56.72;;;0.30;99.90;;;;;;5011153;28;20042;-78
2023/12/11 04:45:15;;;;;;;86.50;50.50;;;0.30;99.90;;;;;;5011143;28;20042;-76
2023/12/11 04:47:42;;;;;;;97.50;57.40;;;0.30;99.90;;;;;;5010441;28;20728;-78
2023/12/11 04:50:10;;;;;;;93.43;56.33;;;0.30;99.90;;;;;;4993530;28;20058;-77
2023/12/11 04:52:38;;;;;;;92.38;55.45;;;0.40;99.90;;;;;;5011000;28;20045;-78
2023/12/11 04:55:06;;;;;;;97.20;59.33;;;0.40;99.90;;;;;;5009635;28;20042;-78
2023/12/11 04:57:34;;;;;;;99.55;58.25;;;0.40;99.90;;;;;;5011455;28;20046;-78
2023/12/11 05:00:01;;;;;;;103.13;60.13;;;0.30;99.90;;;;;;5012206;28;20050;-79
2023/12/11 05:02:31;;;;;;;108.80;61.63;;;0.40;99.90;;;;;;4994476;28;20494;-79
2023/12/11 05:04:58;;;;;;;110.38;62.30;;;0.40;99.90;;;;;;5012048;28;20129;-79
2023/12/11 05:07:26;;;;;;;102.63;60.15;;;0.50;99.90;;;;;;5014185;28;20124;-78
2023/12/11 05:09:53;;;;;;;93.65;51.55;;;0.50;99.90;;;;;;5017774;28;20057;-77
2023/12/11 05:12:21;;;;;;;91.97;50.80;;;0.50;99.90;;;;;;5018346;28;20046;-75
2023/12/11 05:14:49;;;;;;;73.60;41.50;;;0.60;99.90;;;;;;5033363;28;20054;-76
2023/12/11 05:17:16;;;;;;;64.32;36.80;;;0.60;99.90;;;;;;5025738;28;20093;-73
2023/12/11 05:19:45;;;;;;;76.45;44.40;;;0.70;99.90;;;;;;5025768;28;20030;-75
2023/12/11 05:22:13;;;;;;;113.38;63.75;;;0.80;99.90;;;;;;5035475;28;20037;-74
2023/12/11 05:24:41;;;;;;;105.05;65.00;;;0.80;99.90;;;;;;5032224;28;20044;-76
2023/12/11 05:27:11;;;;;;;93.45;54.30;;;0.80;99.90;;;;;;5018058;28;20037;-77
2023/12/11 05:29:38;;;;;;;84.03;50.15;;;0.80;99.90;;;;;;5014783;28;20807;-78
2023/12/11 05:32:07;;;;;;;91.85;54.05;;;0.90;99.90;;;;;;5018412;28;20042;-77
2023/12/11 05:34:34;;;;;;;93.97;54.65;;;0.90;99.90;;;;;;4995371;28;20050;-77
2023/12/11 05:37:04;;;;;;;109.00;64.05;;;0.90;99.90;;;;;;5004528;28;20045;-75
2023/12/11 05:39:32;;;;;;;107.75;62.70;;;0.90;99.90;;;;;;4995417;28;20049;-77
2023/12/11 05:41:59;;;;;;;105.78;62.47;;;1.00;99.90;;;;;;4996076;28;20050;-76
2023/12/11 05:44:28;;;;;;;97.35;56.42;;;1.00;99.90;;;;;;4993873;28;20060;-76
2023/12/11 05:46:56;;;;;;;97.85;58.78;;;0.90;99.90;;;;;;4995405;28;20054;-77
2023/12/11 05:49:24;;;;;;;98.35;59.70;;;0.80;99.90;;;;;;4999954;28;20081;-72
2023/12/11 05:51:52;;;;;;;93.63;58.70;;;0.70;99.90;;;;;;5012214;28;20049;-72
2023/12/11 05:54:21;;;;;;;94.47;57.15;;;0.70;99.90;;;;;;5009323;28;20046;-77
2023/12/11 05:56:48;;;;;;;97.03;58.67;;;0.80;99.90;;;;;;4995150;28;20057;-72
2023/12/11 05:59:16;;;;;;;98.72;59.65;;;0.90;99.90;;;;;;4993635;28;20435;-75
2023/12/11 06:01:44;;;;;;;102.88;60.20;;;0.90;99.90;;;;;;5010959;28;20093;-73
2023/12/11 06:04:11;;;;;;;98.25;57.55;;;1.00;99.90;;;;;;5006873;28;20046;-76
2023/12/11 06:06:39;;;;;;;111.45;64.72;;;1.00;99.90;;;;;;5025591;28;20045;-76
2023/12/11 06:09:06;;;;;;;121.53;72.47;;;1.20;99.90;;;;;;4995363;28;20123;-74
2023/12/11 06:11:36;;;;;;;132.40;78.72;;;1.20;99.90;;;;;;5010187;28;20503;-77
2023/12/11 06:14:03;;;;;;;128.07;76.15;;;1.30;99.90;;;;;;5012658;28;20481;-76
2023/12/11 06:16:31;;;;;;;139.55;85.78;;;1.20;99.90;;;;;;5020863;28;20037;-74
2023/12/11 06:18:59;;;;;;;136.18;86.07;;;1.20;99.90;;;;;;5011535;28;20050;-73
2023/12/11 06:21:26;;;;;;;138.65;86.88;;;1.20;99.90;;;;;;5027684;28;20042;-73
2023/12/11 06:23:54;;;;;;;125.82;78.70;;;1.30;99.90;;;;;;5015857;28;20509;-78
2023/12/11 06:26:29;;;;;;;118.80;71.68;;;1.40;99.90;;;;;;5010531;28;20045;-77
2023/12/11 06:29:00;;;;;;;106.10;62.97;;;1.40;99.90;;;;;;5011638;28;20478;-76
2023/12/11 06:31:29;;;;;;;110.63;65.32;;;1.50;99.90;;;;;;4994189;28;20924;-77
2023/12/11 06:33:57;;;;;;;120.65;72.85;;;1.50;99.90;;;;;;5011674;28;20038;-74
2023/12/11 06:36:25;;;;;;;133.48;81.55;;;1.50;99.90;;;;;;5013274;28;20050;-75
2023/12/11 06:38:53;;;;;;;138.90;85.80;;;1.50;99.90;;;;;;5012753;28;20533;-75
2023/12/11 06:41:21;;;;;;;132.73;79.55;;;1.50;99.90;;;;;;5012980;28;20052;-78
2023/12/11 06:43:49;;;;;;;120.22;73.32;;;1.60;99.90;;;;;;5009751;28;20042;-75
2023/12/11 06:46:43;;;;;;;103.90;66.18;;;1.70;99.90;;;;;;4992735;28;20145;-76
2023/12/11 06:49:11;;;;;;;113.88;73.43;;;1.60;99.90;;;;;;4995843;23;20058;-77
2023/12/11 06:51:39;;;;;;;115.43;72.32;;;1.70;99.90;;;;;;4994810;28;20144;-76
2023/12/11 06:54:07;;;;;;;114.05;70.45;;;1.80;99.90;;;;;;5003023;23;20082;-79
2023/12/11 06:56:35;;;;;;;112.50;67.13;;;1.80;99.90;;;;;;4975984;28;20043;-76
2023/12/11 06:59:02;;;;;;;106.80;67.00;;;2.00;99.90;;;;;;4994436;28;20137;-78
2023/12/11 07:01:31;;;;;;;112.55;69.35;;;2.00;99.90;;;;;;4992435;28;20046;-78
2023/12/11 07:04:00;;;;;;;145.07;92.13;;;2.20;99.90;;;;;;4993174;28;20042;-77
2023/12/11 07:06:28;;;;;;;142.63;90.53;;;2.20;99.90;;;;;;4994307;28;20081;-77
2023/12/11 07:08:55;;;;;;;134.23;86.03;;;2.20;99.90;;;;;;4998659;28;20038;-75
2023/12/11 07:11:24;;;;;;;121.78;77.95;;;2.30;99.90;;;;;;4997805;28;20050;-79
2023/12/11 07:13:52;;;;;;;115.45;72.50;;;2.30;99.90;;;;;;4977973;28;20894;-76
2023/12/11 07:16:20;;;;;;;115.45;73.55;;;2.30;99.90;;;;;;4995423;28;20045;-78
2023/12/11 07:18:47;;;;;;;122.20;76.93;;;2.40;99.90;;;;;;4979116;28;20406;-78
2023/12/11 07:21:17;;;;;;;118.10;73.20;;;2.60;99.90;;;;;;4997088;28;20065;-78
2023/12/11 07:23:47;;;;;;;146.73;89.50;;;2.70;99.90;;;;;;4994840;28;20038;-79
2023/12/11 07:26:15;;;;;;;157.98;98.05;;;2.80;99.90;;;;;;4995118;28;20115;-77
2023/12/11 07:28:43;;;;;;;154.93;99.22;;;2.90;99.90;;;;;;4994380;28;20049;-79
2023/12/11 07:31:35;;;;;;;151.25;93.80;;;3.00;99.90;;;;;;4975012;28;20391;-80
2023/12/11 07:34:03;;;;;;;141.27;88.05;;;3.10;99.90;;;;;;4995351;28;20046;-78
2023/12/11 07:36:32;;;;;;;138.07;90.32;;;3.20;99.90;;;;;;4995277;28;20043;-78
2023/12/11 07:39:00;;;;;;;145.30;91.05;;;3.20;43.10;;;;;;4995652;28;20053;-79
2023/12/11 07:41:27;;;;;;;135.43;83.75;;;3.00;1.00;;;;;;4976830;28;20058;-79
2023/12/11 07:43:55;;;;;;;147.15;91.60;;;3.10;43.30;;;;;;4996095;28;20088;-78
2023/12/11 07:46:23;;;;;;;158.98;99.57;;;3.10;88.70;;;;;;4980007;28;20050;-78
2023/12/11 07:48:51;;;;;;;166.68;101.68;;;3.30;94.80;;;;;;4997432;28;20046;-78
2023/12/11 07:51:19;;;;;;;125.45;82.57;;;3.40;1.00;;;;;;4992348;28;20441;-76
2023/12/11 07:53:49;;;;;;;126.00;79.30;;;3.30;1.00;;;;;;4991677;28;20062;-76
2023/12/11 07:56:20;;;;;;;129.07;78.38;;;3.50;1.00;;;;;;4994041;28;20042;-78
2023/12/11 07:58:48;;;;;;;138.15;83.22;;;3.70;1.00;;;;;;4992721;28;20042;-75
2023/12/11 08:01:16;;;;;;;134.25;82.22;;;3.80;1.00;;;;;;4993002;28;20046;-80
2023/12/11 08:03:44;;;;;;;132.15;80.20;;;3.90;1.00;;;;;;4991312;28;20054;-77
2023/12/11 08:06:12;;;;;;;127.97;80.45;;;3.90;1.00;;;;;;4993676;28;20050;-75
2023/12/11 08:08:43;;;;;;;158.00;95.20;;;3.90;1.00;;;;;;4975016;28;20128;-78
2023/12/11 08:11:20;;;;;;;170.70;101.72;;;3.80;1.00;;;;;;4993200;28;20034;-77
2023/12/11 08:13:48;;;;;;;211.35;131.43;;;3.70;1.00;;;;;;4992114;28;20034;-78
2023/12/11 08:16:16;;;;;;;191.68;111.10;;;3.40;99.90;;;;;;4992369;28;20042;-77
2023/12/11 08:18:45;;;;;;;169.60;103.75;;;3.40;1.00;;;;;;4993325;28;20046;-78
2023/12/11 08:21:12;;;;;;;177.30;107.78;;;3.50;1.00;;;;;;4992635;28;20034;-78
2023/12/11 08:23:40;;;;;;;151.90;93.15;;;3.70;1.00;;;;;;4994827;28;20096;-75
2023/12/11 08:26:09;;;;;;;158.25;95.38;;;3.90;1.00;;;;;;4996350;28;20038;-77
2023/12/11 08:28:38;;;;;;;163.52;98.35;;;4.00;1.00;;;;;;4998433;28;20097;-78
2023/12/11 08:31:06;;;;;;;205.57;127.90;;;4.00;1.00;;;;;;4997910;28;20045;-78
2023/12/11 08:33:33;;;;;;;215.18;128.20;;;4.10;1.00;;;;;;4996736;28;20058;-76
2023/12/11 08:36:01;;;;;;;207.73;130.98;;;4.20;1.00;;;;;;4996864;28;20034;-77
2023/12/11 08:38:29;;;;;;;190.93;122.40;;;4.30;1.00;;;;;;4997006;28;20054;-77
2023/12/11 08:40:57;;;;;;;193.40;121.15;;;4.30;99.90;;;;;;4980169;28;20050;-78
2023/12/11 08:43:25;;;;;;;218.20;138.20;;;4.40;1.00;;;;;;4995424;28;20062;-77
2023/12/11 08:45:55;;;;;;;207.55;131.35;;;4.60;1.00;;;;;;4978455;28;20064;-76
2023/12/11 08:48:22;;;;;;;205.73;126.88;;;4.70;99.90;;;;;;4995764;28;20056;-78
2023/12/11 08:50:52;;;;;;;204.70;128.65;;;4.70;94.60;;;;;;4978946;28;20121;-76
2023/12/11 08:53:20;;;;;;;198.90;128.70;;;4.80;72.90;;;;;;4996020;28;20046;-76
2023/12/11 08:55:48;;;;;;;201.80;126.53;;;4.90;1.00;;;;;;4978163;28;20387;-75
2023/12/11 08:58:15;;;;;;;195.25;123.38;;;4.90;1.00;;;;;;4995435;28;20705;-76
2023/12/11 09:00:43;;;;;;;189.75;120.97;;;5.00;1.00;;;;;;4995611;28;20066;-76
2023/12/11 09:03:12;;;;;;;194.40;122.13;;;4.90;1.00;;;;;;4994367;28;20056;-77
2023/12/11 09:05:40;;;;;;;115.22;73.70;;;4.80;1.00;;;;;;4996063;28;20042;-77
2023/12/11 09:08:07;;;;;;;130.75;82.57;;;4.90;99.90;;;;;;4979040;28;20093;-76
2023/12/11 09:10:35;;;;;;;155.88;95.93;;;5.00;1.00;;;;;;4995342;28;20379;-77
2023/12/11 09:13:03;;;;;;;139.13;89.90;;;5.20;1.00;;;;;;4994286;28;20050;-77
2023/12/11 09:15:31;;;;;;;136.50;90.28;;;5.40;1.00;;;;;;4979453;28;20064;-76
2023/12/11 09:17:59;;;;;;;146.80;91.50;;;5.70;99.90;;;;;;4995368;28;21063;-76
2023/12/11 09:20:28;;;;;;;131.65;85.65;;;5.90;1.00;;;;;;5001463;28;20034;-78
2023/12/11 09:22:56;;;;;;;128.20;85.30;;;6.00;1.00;;;;;;4995224;28;20053;-76
2023/12/11 09:25:24;;;;;;;132.70;84.63;;;6.20;1.00;;;;;;4977229;28;20050;-75
2023/12/11 09:27:51;;;;;;;129.05;85.53;;;6.30;1.00;;;;;;4997602;28;20546;-79
2023/12/11 09:30:19;;;;;;;141.65;91.63;;;6.40;99.90;;;;;;4995092;28;20462;-76
2023/12/11 09:32:47;;;;;;;159.90;104.18;;;6.50;99.90;;;;;;4998446;28;20069;-77
2023/12/11 09:35:14;;;;;;;159.40;104.38;;;6.60;1.00;;;;;;4998809;28;20133;-77
2023/12/11 09:37:45;;;;;;;149.38;95.97;;;6.60;1.00;;;;;;4998062;28;20042;-77
2023/12/11 09:40:13;;;;;;;111.57;73.20;;;6.60;99.90;;;;;;5011720;28;20548;-75
2023/12/11 09:42:42;;;;;;;118.60;76.63;;;6.40;99.90;;;;;;5015815;28;20058;-74
2023/12/11 09:45:11;;;;;;;117.43;72.25;;;6.30;16.00;;;;;;5000309;28;20053;-75
2023/12/11 09:47:44;;;;;;;111.20;70.45;;;6.50;1.00;;;;;;4978464;28;20046;-77
2023/12/11 09:50:13;;;;;;;107.05;72.03;;;6.60;1.00;;;;;;4996830;28;20042;-76
2023/12/11 09:52:43;;;;;;;122.93;77.05;;;6.70;99.90;;;;;;4978255;28;20196;-77
2023/12/11 09:55:11;;;;;;;117.07;74.75;;;6.90;1.00;;;;;;4993918;28;20528;-75
2023/12/11 09:57:41;;;;;;;122.30;78.15;;;7.00;45.70;;;;;;4995893;28;20656;-77
2023/12/11 10:00:10;;;;;;;127.53;78.55;;;7.00;1.00;;;;;;4996296;28;20039;-77
2023/12/11 10:02:40;;;;;;;132.32;84.03;;;7.10;47.80;;;;;;4995207;28;20038;-78
2023/12/11 10:05:09;;;;;;;134.43;85.88;;;7.20;1.00;;;;;;4977408;28;20042;-76
2023/12/11 10:07:38;;;;;;;131.07;84.25;;;7.30;1.00;;;;;;4993856;28;20051;-78
2023/12/11 10:10:26;;;;;;;140.75;90.68;;;7.50;7.40;;;;;;4994006;28;20074;-77
2023/12/11 10:12:55;;;;;;;139.90;88.15;;;7.50;78.80;;;;;;4994381;28;20103;-77
2023/12/11 10:15:23;;;;;;;115.30;74.85;;;7.60;1.00;;;;;;4995015;28;20064;-77
2023/12/11 10:18:06;;;;;;;115.20;72.07;;;7.60;1.00;;;;;;4994505;28;20061;-78
2023/12/11 10:20:34;;;;;;;119.80;77.57;;;7.70;57.60;;;;;;4993916;28;20069;-78
2023/12/11 10:23:12;;;;;;;142.88;90.57;;;7.70;99.90;;;;;;4994337;28;20038;-77
2023/12/11 10:25:43;;;;;;;119.13;78.75;;;7.90;1.00;;;;;;4995855;28;20507;-78
2023/12/11 10:28:12;;;;;;;108.07;70.43;;;8.00;1.00;;;;;;4994318;28;20125;-79
2023/12/11 10:30:53;;;;;;;113.05;70.70;;;8.00;1.00;;;;;;4993942;28;20042;-79
2023/12/11 10:33:22;;;;;;;123.03;76.47;;;8.10;1.00;;;;;;4999781;28;20043;-77
2023/12/11 10:35:50;;;;;;;114.63;72.78;;;8.20;1.00;;;;;;5005465;28;20042;-75
2023/12/11 10:38:25;;;;;;;114.25;71.40;;;8.40;1.00;;;;;;5003386;28;20069;-77
2023/12/11 10:40:55;;;;;;;122.00;80.18;;;8.50;1.00;;;;;;4999497;28;20074;-75
2023/12/11 10:43:23;;;;;;;124.82;81.55;;;8.60;1.00;;;;;;4997537;28;20522;-78
2023/12/11 10:45:50;;;;;;;134.65;90.55;;;8.70;99.90;;;;;;4996037;28;20100;-77
2023/12/11 10:48:19;;;;;;;150.55;98.40;;;8.80;99.90;;;;;;4999076;28;20129;-77
2023/12/11 10:50:47;;;;;;;164.73;104.45;;;8.90;99.90;;;;;;4995753;28;20590;-78
2023/12/11 12:39:58;;;;;;;43.53;27.15;;;11.10;42.70;;;;;;4987226;28;20597;-78
2023/12/11 12:42:35;;;;;;;36.47;24.55;;;11.10;16.70;;;;;;4995579;28;20057;-78
2023/12/11 12:45:04;;;;;;;35.38;22.05;;;11.10;10.80;;;;;;5003468;28;20047;-79
2023/12/11 12:47:32;;;;;;;34.28;22.33;;;11.10;1.00;;;;;;5003662;28;20052;-79
2023/12/11 12:50:00;;;;;;;31.90;21.33;;;11.10;1.00;;;;;;5006799;28;20114;-77
2023/12/11 12:52:28;;;;;;;41.53;26.77;;;11.00;1.00;;;;;;5003986;28;20058;-79
2023/12/11 12:54:57;;;;;;;44.03;26.73;;;11.10;1.00;;;;;;5006088;28;20104;-77
2023/12/11 12:57:25;;;;;;;41.92;27.08;;;11.10;1.00;;;;;;5003436;28;20514;-78
2023/12/11 12:59:53;;;;;;;46.00;26.35;;;11.10;1.00;;;;;;4999135;28;20482;-77
2023/12/11 13:02:20;;;;;;;54.13;34.75;;;11.20;1.00;;;;;;4999016;28;20099;-78
2023/12/11 13:04:52;;;;;;;55.90;32.97;;;11.20;1.00;;;;;;4997162;28;20573;-79
2023/12/11 13:07:21;;;;;;;54.08;34.70;;;11.20;1.00;;;;;;4997904;28;20414;-77
2023/12/11 13:09:49;;;;;;;59.50;36.17;;;11.20;1.00;;;;;;4993047;28;20050;-79
2023/12/11 13:12:19;;;;;;;62.38;39.33;;;11.20;1.00;;;;;;4978779;28;20053;-78
2023/12/11 13:14:47;;;;;;;69.30;45.00;;;11.20;1.00;;;;;;4995558;28;20434;-78
2023/12/11 13:17:14;;;;;;;71.72;44.47;;;11.30;1.00;;;;;;4996262;28;20109;-79
2023/12/11 13:19:43;;;;;;;81.55;49.13;;;11.30;4.30;;;;;;4996134;28;20053;-77
2023/12/11 13:22:11;;;;;;;88.88;54.03;;;11.20;15.90;;;;;;4997602;28;20187;-79
2023/12/11 13:24:39;;;;;;;105.78;66.00;;;11.20;37.00;;;;;;4997679;28;20145;-79
2023/12/11 13:27:07;;;;;;;123.28;75.43;;;11.20;62.00;;;;;;4999722;28;20069;-79
2023/12/11 13:29:36;;;;;;;135.55;86.57;;;11.20;94.70;;;;;;5001465;28;20085;-79
2023/12/11 13:32:03;;;;;;;151.25;93.43;;;11.20;99.90;;;;;;5007411;28;20094;-78
2023/12/11 13:34:31;;;;;;;165.25;99.40;;;11.10;99.90;;;;;;5011568;28;20057;-77
2023/12/11 13:36:58;;;;;;;173.93;104.32;;;11.10;99.90;;;;;;5012661;28;20046;-79
2023/12/11 13:39:26;;;;;;;161.77;103.75;;;11.10;99.90;;;;;;5011248;28;20105;-79
2023/12/11 13:41:53;;;;;;;162.05;98.90;;;10.90;99.90;;;;;;4999369;28;20042;-77
2023/12/11 13:44:21;;;;;;;163.13;102.25;;;10.90;99.90;;;;;;4996167;28;20489;-80
2023/12/11 13:46:50;;;;;;;162.07;99.85;;;10.80;99.90;;;;;;4997082;28;20089;-78
2023/12/11 13:49:18;;;;;;;170.25;107.05;;;10.60;99.90;;;;;;4995757;28;20070;-78
2023/12/11 13:51:46;;;;;;;173.88;110.65;;;10.50;1.00;;;;;;4995887;28;20057;-79
2023/12/11 13:54:14;;;;;;;177.52;109.50;;;10.30;1.00;;;;;;4994505;28;20057;-79
2023/12/11 13:56:44;;;;;;;171.80;111.68;;;10.20;1.00;;;;;;4998243;28;20434;-78
2023/12/11 13:59:11;;;;;;;172.82;111.00;;;10.20;1.00;;;;;;4996919;28;20050;-78
2023/12/11 14:01:40;;;;;;;164.65;107.28;;;10.00;50.20;;;;;;4979952;28;20128;-78
2023/12/11 14:04:09;;;;;;;156.85;102.80;;;10.00;99.90;;;;;;4987909;28;20076;-79
2023/12/11 14:06:37;;;;;;;156.35;102.85;;;9.90;99.90;;;;;;5006005;28;20077;-78
2023/12/11 14:09:04;;;;;;;156.75;103.75;;;9.70;1.00;;;;;;5000527;28;20030;-78
2023/12/11 14:11:32;;;;;;;159.65;103.40;;;9.60;1.00;;;;;;5000315;28;20038;-79
2023/12/11 14:13:59;;;;;;;156.23;101.55;;;9.50;1.00;;;;;;5002966;28;20030;-78
2023/12/11 14:16:27;;;;;;;153.38;101.45;;;9.40;1.00;;;;;;4999829;28;20053;-78
2023/12/11 14:18:55;;;;;;;146.90;94.82;;;9.30;99.90;;;;;;4978950;28;20039;-78
2023/12/11 14:21:24;;;;;;;146.55;95.55;;;9.30;99.90;;;;;;4997483;28;20046;-79